sensor_id;sensor_type;location;lat;lon;timestamp;temperature;humidity
16879;DHT22;8556;52.218;9.884;2022-09-09T00:00:13;14.40;99.90
16879;DHT22;8556;52.218;9.884;2022-09-09T00:02:43;14.50;99.90
16879;DHT22;8556;52.218;9.884;2022-09-09T00:05:17;14.50;99.90
16879;DHT22;8556;52.218;9.884;2022-09-09T00:07:49;14.40;99.90
16879;DHT22;8556;52.218;9.884;2022-09-09T00:10:25;14.40;99.90
16879;DHT22;8556;52.218;9.884;2022-09-09T00:13:02;14.40;99.90
16879;DHT22;8556;52.218;9.884;2022-09-09T00:15:37;14.40;99.90
16879;DHT22;8556;52.218;9.884;2022-09-09T00:18:13;14.40;99.90
16879;DHT22;8556;52.218;9.884;2022-09-09T00:20:47;14.30;99.90
16879;DHT22;8556;52.218;9.884;2022-09-09T00:23:23;14.10;99.90
16879;DHT22;8556;52.218;9.884;2022-09-09T00:25:57;14.20;99.90
16879;DHT22;8556;52.218;9.884;2022-09-09T00:28:28;14.10;99.90
16879;DHT22;8556;52.218;9.884;2022-09-09T00:30:59;14.10;99.90
16879;DHT22;8556;52.218;9.884;2022-09-09T00:33:30;14.10;99.90
16879;DHT22;8556;52.218;9.884;2022-09-09T00:35:58;14.10;99.90
16879;DHT22;8556;52.218;9.884;2022-09-09T00:38:32;14.10;99.90
16879;DHT22;8556;52.218;9.884;2022-09-09T00:41:05;14.00;99.90
16879;DHT22;8556;52.218;9.884;2022-09-09T00:43:37;13.90;99.90
16879;DHT22;8556;52.218;9.884;2022-09-09T00:49:02;14.00;99.90
16879;DHT22;8556;52.218;9.884;2022-09-09T00:51:41;13.90;99.90
16879;DHT22;8556;52.218;9.884;2022-09-09T00:54:22;13.90;99.90
16879;DHT22;8556;52.218;9.884;2022-09-09T00:57:01;13.90;99.90
16879;DHT22;8556;52.218;9.884;2022-09-09T00:59:39;13.90;99.90
16879;DHT22;8556;52.218;9.884;2022-09-09T01:02:19;13.80;99.90
16879;DHT22;8556;52.218;9.884;2022-09-09T01:04:48;13.90;99.90
16879;DHT22;8556;52.218;9.884;2022-09-09T01:07:17;13.90;99.90
16879;DHT22;8556;52.218;9.884;2022-09-09T01:10:03;13.80;99.90
16879;DHT22;8556;52.218;9.884;2022-09-09T01:12:40;13.90;99.90
16879;DHT22;8556;52.218;9.884;2022-09-09T01:15:13;13.70;99.90
16879;DHT22;8556;52.218;9.884;2022-09-09T01:17:53;13.70;99.90
16879;DHT22;8556;52.218;9.884;2022-09-09T01:20:24;13.80;99.90
16879;DHT22;8556;52.218;9.884;2022-09-09T01:23:28;13.80;99.90
16879;DHT22;8556;52.218;9.884;2022-09-09T01:26:18;13.80;99.90
16879;DHT22;8556;52.218;9.884;2022-09-09T01:28:47;13.80;99.90
16879;DHT22;8556;52.218;9.884;2022-09-09T01:31:18;13.70;99.90
16879;DHT22;8556;52.218;9.884;2022-09-09T01:33:46;13.80;99.90
16879;DHT22;8556;52.218;9.884;2022-09-09T01:36:19;13.80;99.90
16879;DHT22;8556;52.218;9.884;2022-09-09T01:38:48;13.70;99.90
16879;DHT22;8556;52.218;9.884;2022-09-09T01:41:15;13.60;99.90
16879;DHT22;8556;52.218;9.884;2022-09-09T01:43:43;13.50;99.90
16879;DHT22;8556;52.218;9.884;2022-09-09T01:46:12;13.50;99.90
16879;DHT22;8556;52.218;9.884;2022-09-09T01:48:40;13.50;99.90
16879;DHT22;8556;52.218;9.884;2022-09-09T01:51:08;13.50;99.90
16879;DHT22;8556;52.218;9.884;2022-09-09T01:53:36;13.60;99.90
16879;DHT22;8556;52.218;9.884;2022-09-09T01:56:11;13.60;99.90
16879;DHT22;8556;52.218;9.884;2022-09-09T01:58:53;13.50;99.90
16879;DHT22;8556;52.218;9.884;2022-09-09T02:01:30;13.50;99.90
16879;DHT22;8556;52.218;9.884;2022-09-09T02:04:06;13.50;99.90
16879;DHT22;8556;52.218;9.884;2022-09-09T02:06:36;13.50;99.90
16879;DHT22;8556;52.218;9.884;2022-09-09T02:09:05;13.50;99.90
16879;DHT22;8556;52.218;9.884;2022-09-09T02:11:33;13.50;99.90
16879;DHT22;8556;52.218;9.884;2022-09-09T02:14:05;13.60;99.90
16879;DHT22;8556;52.218;9.884;2022-09-09T02:16:37;13.60;99.90
16879;DHT22;8556;52.218;9.884;2022-09-09T02:19:09;13.60;99.90
16879;DHT22;8556;52.218;9.884;2022-09-09T02:21:40;13.60;99.90
16879;DHT22;8556;52.218;9.884;2022-09-09T02:24:08;13.60;99.90
16879;DHT22;8556;52.218;9.884;2022-09-09T02:26:39;13.60;99.90
16879;DHT22;8556;52.218;9.884;2022-09-09T02:29:12;13.60;99.90
16879;DHT22;8556;52.218;9.884;2022-09-09T02:31:42;13.60;99.90
16879;DHT22;8556;52.218;9.884;2022-09-09T02:34:11;13.50;99.90
16879;DHT22;8556;52.218;9.884;2022-09-09T02:36:41;13.40;99.90
16879;DHT22;8556;52.218;9.884;2022-09-09T02:39:10;13.50;99.90
16879;DHT22;8556;52.218;9.884;2022-09-09T02:41:40;13.60;99.90
16879;DHT22;8556;52.218;9.884;2022-09-09T02:44:11;13.40;99.90
16879;DHT22;8556;52.218;9.884;2022-09-09T02:46:55;13.40;99.90
16879;DHT22;8556;52.218;9.884;2022-09-09T02:49:31;13.40;99.90
16879;DHT22;8556;52.218;9.884;2022-09-09T02:52:06;13.50;99.90
16879;DHT22;8556;52.218;9.884;2022-09-09T02:54:35;13.60;99.90
16879;DHT22;8556;52.218;9.884;2022-09-09T02:57:08;13.70;99.90
16879;DHT22;8556;52.218;9.884;2022-09-09T02:59:38;13.70;99.90
16879;DHT22;8556;52.218;9.884;2022-09-09T03:02:06;13.80;99.90
16879;DHT22;8556;52.218;9.884;2022-09-09T03:04:33;13.90;99.90
16879;DHT22;8556;52.218;9.884;2022-09-09T03:07:00;14.10;99.90
16879;DHT22;8556;52.218;9.884;2022-09-09T03:09:29;14.10;99.90
16879;DHT22;8556;52.218;9.884;2022-09-09T03:11:56;14.00;99.90
16879;DHT22;8556;52.218;9.884;2022-09-09T03:14:23;14.00;99.90
16879;DHT22;8556;52.218;9.884;2022-09-09T03:16:52;14.00;99.90
16879;DHT22;8556;52.218;9.884;2022-09-09T03:19:20;14.10;99.90
16879;DHT22;8556;52.218;9.884;2022-09-09T03:21:47;14.20;99.90
16879;DHT22;8556;52.218;9.884;2022-09-09T03:24:15;14.30;99.90
16879;DHT22;8556;52.218;9.884;2022-09-09T03:26:42;14.40;99.90
16879;DHT22;8556;52.218;9.884;2022-09-09T03:29:11;14.50;99.90
16879;DHT22;8556;52.218;9.884;2022-09-09T03:31:39;14.60;99.90
16879;DHT22;8556;52.218;9.884;2022-09-09T03:34:07;14.90;99.90
16879;DHT22;8556;52.218;9.884;2022-09-09T03:36:34;15.00;99.90
16879;DHT22;8556;52.218;9.884;2022-09-09T03:39:01;15.20;99.90
16879;DHT22;8556;52.218;9.884;2022-09-09T03:41:29;15.20;99.90
16879;DHT22;8556;52.218;9.884;2022-09-09T03:43:56;15.10;99.90
16879;DHT22;8556;52.218;9.884;2022-09-09T03:46:24;15.10;99.90
16879;DHT22;8556;52.218;9.884;2022-09-09T03:48:52;15.10;99.90
16879;DHT22;8556;52.218;9.884;2022-09-09T03:51:20;15.00;99.90
16879;DHT22;8556;52.218;9.884;2022-09-09T03:53:48;15.00;99.90
16879;DHT22;8556;52.218;9.884;2022-09-09T03:56:18;15.10;99.90
16879;DHT22;8556;52.218;9.884;2022-09-09T03:58:47;15.10;99.90
16879;DHT22;8556;52.218;9.884;2022-09-09T04:01:20;15.00;99.90
16879;DHT22;8556;52.218;9.884;2022-09-09T04:03:46;15.10;99.90
16879;DHT22;8556;52.218;9.884;2022-09-09T04:06:14;15.00;99.90
16879;DHT22;8556;52.218;9.884;2022-09-09T04:08:45;15.20;99.90
16879;DHT22;8556;52.218;9.884;2022-09-09T04:11:14;15.20;99.90
16879;DHT22;8556;52.218;9.884;2022-09-09T04:13:41;15.20;99.90
16879;DHT22;8556;52.218;9.884;2022-09-09T04:16:11;15.30;99.90
16879;DHT22;8556;52.218;9.884;2022-09-09T04:18:38;15.30;99.90
16879;DHT22;8556;52.218;9.884;2022-09-09T04:21:05;15.30;99.90
16879;DHT22;8556;52.218;9.884;2022-09-09T04:23:33;15.30;99.90
16879;DHT22;8556;52.218;9.884;2022-09-09T04:26:03;15.40;99.90
16879;DHT22;8556;52.218;9.884;2022-09-09T04:28:33;15.40;99.90
16879;DHT22;8556;52.218;9.884;2022-09-09T04:31:05;15.40;99.90
16879;DHT22;8556;52.218;9.884;2022-09-09T04:33:31;15.50;99.90
16879;DHT22;8556;52.218;9.884;2022-09-09T04:35:58;15.40;99.90
16879;DHT22;8556;52.218;9.884;2022-09-09T04:38:25;15.40;99.90
16879;DHT22;8556;52.218;9.884;2022-09-09T04:40:52;15.30;99.90
16879;DHT22;8556;52.218;9.884;2022-09-09T04:43:21;15.30;99.90
16879;DHT22;8556;52.218;9.884;2022-09-09T04:45:49;15.20;99.90
16879;DHT22;8556;52.218;9.884;2022-09-09T04:48:16;15.20;99.90
16879;DHT22;8556;52.218;9.884;2022-09-09T04:50:44;15.20;99.90
16879;DHT22;8556;52.218;9.884;2022-09-09T04:53:11;15.20;99.90
16879;DHT22;8556;52.218;9.884;2022-09-09T04:55:38;15.10;99.90
16879;DHT22;8556;52.218;9.884;2022-09-09T04:58:07;15.20;99.90
16879;DHT22;8556;52.218;9.884;2022-09-09T05:00:36;15.10;99.90
16879;DHT22;8556;52.218;9.884;2022-09-09T05:03:03;15.10;99.90
16879;DHT22;8556;52.218;9.884;2022-09-09T05:05:31;15.10;99.90
16879;DHT22;8556;52.218;9.884;2022-09-09T05:08:01;15.10;99.90
16879;DHT22;8556;52.218;9.884;2022-09-09T05:10:29;15.10;99.90
16879;DHT22;8556;52.218;9.884;2022-09-09T05:12:56;15.20;99.90
16879;DHT22;8556;52.218;9.884;2022-09-09T05:15:23;15.20;99.90
16879;DHT22;8556;52.218;9.884;2022-09-09T05:17:52;15.30;99.90
16879;DHT22;8556;52.218;9.884;2022-09-09T05:20:19;15.30;99.90
16879;DHT22;8556;52.218;9.884;2022-09-09T05:22:47;15.20;99.90
16879;DHT22;8556;52.218;9.884;2022-09-09T05:25:14;15.20;99.90
16879;DHT22;8556;52.218;9.884;2022-09-09T05:27:41;15.30;99.90
16879;DHT22;8556;52.218;9.884;2022-09-09T05:30:09;15.20;99.90
16879;DHT22;8556;52.218;9.884;2022-09-09T05:32:36;15.20;99.90
16879;DHT22;8556;52.218;9.884;2022-09-09T05:35:05;15.20;99.90
16879;DHT22;8556;52.218;9.884;2022-09-09T05:37:32;15.30;99.90
16879;DHT22;8556;52.218;9.884;2022-09-09T05:40:02;15.30;99.90
16879;DHT22;8556;52.218;9.884;2022-09-09T05:42:30;15.40;99.90
16879;DHT22;8556;52.218;9.884;2022-09-09T05:44:58;15.40;99.90
16879;DHT22;8556;52.218;9.884;2022-09-09T05:47:25;15.40;99.90
16879;DHT22;8556;52.218;9.884;2022-09-09T05:49:54;15.40;99.90
16879;DHT22;8556;52.218;9.884;2022-09-09T05:52:23;15.60;99.90
16879;DHT22;8556;52.218;9.884;2022-09-09T05:54:51;15.60;99.90
16879;DHT22;8556;52.218;9.884;2022-09-09T05:57:19;15.70;99.90
16879;DHT22;8556;52.218;9.884;2022-09-09T05:59:46;15.80;99.90
16879;DHT22;8556;52.218;9.884;2022-09-09T06:02:13;15.80;99.90
16879;DHT22;8556;52.218;9.884;2022-09-09T06:04:40;15.90;99.90
16879;DHT22;8556;52.218;9.884;2022-09-09T06:07:07;16.00;99.90
16879;DHT22;8556;52.218;9.884;2022-09-09T06:09:36;16.00;99.90
16879;DHT22;8556;52.218;9.884;2022-09-09T06:12:03;16.00;99.90
16879;DHT22;8556;52.218;9.884;2022-09-09T06:14:30;16.00;99.90
16879;DHT22;8556;52.218;9.884;2022-09-09T06:16:57;16.10;99.90
16879;DHT22;8556;52.218;9.884;2022-09-09T06:19:25;16.10;99.90
16879;DHT22;8556;52.218;9.884;2022-09-09T06:21:52;16.20;99.90
16879;DHT22;8556;52.218;9.884;2022-09-09T06:24:20;16.30;99.90
16879;DHT22;8556;52.218;9.884;2022-09-09T06:26:49;16.40;99.90
16879;DHT22;8556;52.218;9.884;2022-09-09T06:29:16;16.70;99.90
16879;DHT22;8556;52.218;9.884;2022-09-09T06:31:45;17.00;99.90
16879;DHT22;8556;52.218;9.884;2022-09-09T06:34:13;17.00;99.90
16879;DHT22;8556;52.218;9.884;2022-09-09T06:36:40;17.00;99.90
16879;DHT22;8556;52.218;9.884;2022-09-09T06:39:07;17.00;99.90
16879;DHT22;8556;52.218;9.884;2022-09-09T06:41:36;17.10;99.90
16879;DHT22;8556;52.218;9.884;2022-09-09T06:44:05;17.30;99.90
16879;DHT22;8556;52.218;9.884;2022-09-09T06:46:32;17.30;99.90
16879;DHT22;8556;52.218;9.884;2022-09-09T06:49:01;17.40;99.90
16879;DHT22;8556;52.218;9.884;2022-09-09T06:51:30;17.40;99.90
16879;DHT22;8556;52.218;9.884;2022-09-09T06:53:59;17.40;99.90
16879;DHT22;8556;52.218;9.884;2022-09-09T06:56:28;17.40;99.90
16879;DHT22;8556;52.218;9.884;2022-09-09T06:58:58;17.40;99.90
16879;DHT22;8556;52.218;9.884;2022-09-09T07:01:32;17.50;99.90
16879;DHT22;8556;52.218;9.884;2022-09-09T07:04:00;17.60;99.90
16879;DHT22;8556;52.218;9.884;2022-09-09T07:06:29;17.70;99.90
16879;DHT22;8556;52.218;9.884;2022-09-09T07:08:57;17.70;99.90
16879;DHT22;8556;52.218;9.884;2022-09-09T07:11:26;17.70;99.90
16879;DHT22;8556;52.218;9.884;2022-09-09T07:13:54;17.70;99.90
16879;DHT22;8556;52.218;9.884;2022-09-09T07:16:22;17.60;99.90
16879;DHT22;8556;52.218;9.884;2022-09-09T07:18:51;17.60;99.90
16879;DHT22;8556;52.218;9.884;2022-09-09T07:21:23;17.60;99.90
16879;DHT22;8556;52.218;9.884;2022-09-09T07:23:52;17.60;99.90
16879;DHT22;8556;52.218;9.884;2022-09-09T07:26:20;17.70;99.90
16879;DHT22;8556;52.218;9.884;2022-09-09T07:28:48;17.70;99.90
16879;DHT22;8556;52.218;9.884;2022-09-09T07:31:17;17.60;99.90
16879;DHT22;8556;52.218;9.884;2022-09-09T07:33:46;17.70;99.90
16879;DHT22;8556;52.218;9.884;2022-09-09T07:36:15;17.70;99.90
16879;DHT22;8556;52.218;9.884;2022-09-09T07:38:44;17.70;99.90
16879;DHT22;8556;52.218;9.884;2022-09-09T07:41:13;17.90;99.90
16879;DHT22;8556;52.218;9.884;2022-09-09T07:43:41;17.80;99.90
16879;DHT22;8556;52.218;9.884;2022-09-09T07:46:09;17.90;99.90
16879;DHT22;8556;52.218;9.884;2022-09-09T07:48:37;17.90;99.90
16879;DHT22;8556;52.218;9.884;2022-09-09T07:51:08;17.90;99.90
16879;DHT22;8556;52.218;9.884;2022-09-09T07:53:37;18.00;99.90
16879;DHT22;8556;52.218;9.884;2022-09-09T07:56:07;18.00;99.90
16879;DHT22;8556;52.218;9.884;2022-09-09T07:58:35;18.20;99.90
16879;DHT22;8556;52.218;9.884;2022-09-09T08:01:07;18.20;99.90
16879;DHT22;8556;52.218;9.884;2022-09-09T08:03:35;18.20;99.90
16879;DHT22;8556;52.218;9.884;2022-09-09T08:06:04;18.20;99.90
16879;DHT22;8556;52.218;9.884;2022-09-09T08:08:32;18.10;99.90
16879;DHT22;8556;52.218;9.884;2022-09-09T08:11:05;18.10;99.90
16879;DHT22;8556;52.218;9.884;2022-09-09T08:13:33;18.20;99.90
16879;DHT22;8556;52.218;9.884;2022-09-09T08:16:08;18.20;99.90
16879;DHT22;8556;52.218;9.884;2022-09-09T08:18:36;18.30;99.90
16879;DHT22;8556;52.218;9.884;2022-09-09T08:21:11;18.30;99.90
16879;DHT22;8556;52.218;9.884;2022-09-09T08:23:39;18.40;99.90
16879;DHT22;8556;52.218;9.884;2022-09-09T08:26:11;18.40;99.90
16879;DHT22;8556;52.218;9.884;2022-09-09T08:28:39;18.60;99.90
16879;DHT22;8556;52.218;9.884;2022-09-09T08:31:08;18.70;99.90
16879;DHT22;8556;52.218;9.884;2022-09-09T08:33:35;18.70;99.90
16879;DHT22;8556;52.218;9.884;2022-09-09T08:36:05;18.90;99.90
16879;DHT22;8556;52.218;9.884;2022-09-09T08:38:32;18.90;99.90
16879;DHT22;8556;52.218;9.884;2022-09-09T08:41:22;18.90;99.90
16879;DHT22;8556;52.218;9.884;2022-09-09T08:44:00;18.80;99.90
16879;DHT22;8556;52.218;9.884;2022-09-09T08:46:33;18.90;99.90
16879;DHT22;8556;52.218;9.884;2022-09-09T08:49:06;19.00;99.90
16879;DHT22;8556;52.218;9.884;2022-09-09T08:51:39;19.10;99.90
16879;DHT22;8556;52.218;9.884;2022-09-09T08:54:06;19.30;99.90
16879;DHT22;8556;52.218;9.884;2022-09-09T08:56:36;19.40;99.90
16879;DHT22;8556;52.218;9.884;2022-09-09T08:59:03;19.60;99.90
16879;DHT22;8556;52.218;9.884;2022-09-09T09:01:40;19.70;99.90
16879;DHT22;8556;52.218;9.884;2022-09-09T09:04:21;19.60;99.90
16879;DHT22;8556;52.218;9.884;2022-09-09T09:06:58;19.80;99.90
16879;DHT22;8556;52.218;9.884;2022-09-09T09:09:35;19.80;99.90
16879;DHT22;8556;52.218;9.884;2022-09-09T09:12:15;19.80;99.90
16879;DHT22;8556;52.218;9.884;2022-09-09T09:14:43;19.70;99.90
16879;DHT22;8556;52.218;9.884;2022-09-09T09:17:14;19.60;99.90
16879;DHT22;8556;52.218;9.884;2022-09-09T09:19:43;19.70;99.90
16879;DHT22;8556;52.218;9.884;2022-09-09T09:22:17;19.70;99.90
16879;DHT22;8556;52.218;9.884;2022-09-09T09:24:51;19.80;99.90
16879;DHT22;8556;52.218;9.884;2022-09-09T09:27:27;19.80;99.90
16879;DHT22;8556;52.218;9.884;2022-09-09T09:29:59;19.80;99.90
16879;DHT22;8556;52.218;9.884;2022-09-09T09:32:28;20.40;99.90
16879;DHT22;8556;52.218;9.884;2022-09-09T09:34:58;20.80;99.90
16879;DHT22;8556;52.218;9.884;2022-09-09T09:37:30;20.90;99.90
16879;DHT22;8556;52.218;9.884;2022-09-09T09:40:08;20.60;99.90
16879;DHT22;8556;52.218;9.884;2022-09-09T09:42:37;20.60;99.90
16879;DHT22;8556;52.218;9.884;2022-09-09T09:45:12;20.70;99.90
16879;DHT22;8556;52.218;9.884;2022-09-09T09:47:42;20.50;99.90
16879;DHT22;8556;52.218;9.884;2022-09-09T09:50:17;20.30;99.90
16879;DHT22;8556;52.218;9.884;2022-09-09T09:52:54;20.10;99.90
16879;DHT22;8556;52.218;9.884;2022-09-09T09:55:22;20.10;99.90
16879;DHT22;8556;52.218;9.884;2022-09-09T09:57:52;20.10;99.90
16879;DHT22;8556;52.218;9.884;2022-09-09T10:00:20;20.20;99.90
16879;DHT22;8556;52.218;9.884;2022-09-09T10:02:49;20.40;99.90
16879;DHT22;8556;52.218;9.884;2022-09-09T10:05:19;20.50;99.90
16879;DHT22;8556;52.218;9.884;2022-09-09T10:07:47;20.40;99.90
16879;DHT22;8556;52.218;9.884;2022-09-09T10:10:19;20.40;99.90
16879;DHT22;8556;52.218;9.884;2022-09-09T10:12:58;20.30;99.90
16879;DHT22;8556;52.218;9.884;2022-09-09T10:15:34;20.20;99.90
16879;DHT22;8556;52.218;9.884;2022-09-09T10:18:13;20.30;99.90
16879;DHT22;8556;52.218;9.884;2022-09-09T10:20:50;20.50;99.90
16879;DHT22;8556;52.218;9.884;2022-09-09T10:23:37;20.70;99.90
16879;DHT22;8556;52.218;9.884;2022-09-09T10:26:20;20.70;99.90
16879;DHT22;8556;52.218;9.884;2022-09-09T10:29:15;21.00;99.90
16879;DHT22;8556;52.218;9.884;2022-09-09T10:31:52;21.40;99.90
16879;DHT22;8556;52.218;9.884;2022-09-09T10:34:37;21.50;99.90
16879;DHT22;8556;52.218;9.884;2022-09-09T10:37:15;21.50;99.90
16879;DHT22;8556;52.218;9.884;2022-09-09T10:39:51;22.30;99.90
16879;DHT22;8556;52.218;9.884;2022-09-09T10:42:26;22.80;99.90
16879;DHT22;8556;52.218;9.884;2022-09-09T10:45:07;22.50;99.90
16879;DHT22;8556;52.218;9.884;2022-09-09T10:48:04;22.90;99.90
16879;DHT22;8556;52.218;9.884;2022-09-09T10:50:43;23.20;99.90
16879;DHT22;8556;52.218;9.884;2022-09-09T10:53:19;22.90;99.90
16879;DHT22;8556;52.218;9.884;2022-09-09T10:55:51;22.60;99.90
16879;DHT22;8556;52.218;9.884;2022-09-09T10:58:25;22.30;99.90
16879;DHT22;8556;52.218;9.884;2022-09-09T11:00:57;22.20;99.90
16879;DHT22;8556;52.218;9.884;2022-09-09T11:03:28;22.00;99.90
16879;DHT22;8556;52.218;9.884;2022-09-09T11:05:59;21.80;99.90
16879;DHT22;8556;52.218;9.884;2022-09-09T11:08:28;21.70;99.90
16879;DHT22;8556;52.218;9.884;2022-09-09T11:11:00;21.50;99.90
16879;DHT22;8556;52.218;9.884;2022-09-09T11:13:35;21.50;99.90
16879;DHT22;8556;52.218;9.884;2022-09-09T11:16:20;21.40;99.90
16879;DHT22;8556;52.218;9.884;2022-09-09T11:18:49;21.20;99.90
16879;DHT22;8556;52.218;9.884;2022-09-09T11:21:20;21.10;99.90
16879;DHT22;8556;52.218;9.884;2022-09-09T11:23:50;21.00;99.90
16879;DHT22;8556;52.218;9.884;2022-09-09T11:26:27;21.00;99.90
16879;DHT22;8556;52.218;9.884;2022-09-09T11:29:04;21.00;99.90
16879;DHT22;8556;52.218;9.884;2022-09-09T11:31:45;21.10;99.90
16879;DHT22;8556;52.218;9.884;2022-09-09T11:34:24;21.00;99.90
16879;DHT22;8556;52.218;9.884;2022-09-09T11:37:15;21.00;99.90
16879;DHT22;8556;52.218;9.884;2022-09-09T11:39:53;21.10;99.90
16879;DHT22;8556;52.218;9.884;2022-09-09T11:42:26;20.90;99.90
16879;DHT22;8556;52.218;9.884;2022-09-09T11:44:53;20.40;99.90
16879;DHT22;8556;52.218;9.884;2022-09-09T11:47:26;19.90;99.90
16879;DHT22;8556;52.218;9.884;2022-09-09T11:50:06;19.60;99.90
16879;DHT22;8556;52.218;9.884;2022-09-09T11:52:37;19.20;99.90
16879;DHT22;8556;52.218;9.884;2022-09-09T11:55:09;18.90;99.90
16879;DHT22;8556;52.218;9.884;2022-09-09T11:57:37;19.00;99.90
16879;DHT22;8556;52.218;9.884;2022-09-09T12:00:05;18.90;99.90
16879;DHT22;8556;52.218;9.884;2022-09-09T12:02:35;19.00;99.90
16879;DHT22;8556;52.218;9.884;2022-09-09T12:05:06;19.10;99.90
16879;DHT22;8556;52.218;9.884;2022-09-09T12:07:37;19.00;99.90
16879;DHT22;8556;52.218;9.884;2022-09-09T12:10:22;19.00;99.90
16879;DHT22;8556;52.218;9.884;2022-09-09T12:12:50;19.00;99.90
16879;DHT22;8556;52.218;9.884;2022-09-09T12:15:21;19.00;99.90
16879;DHT22;8556;52.218;9.884;2022-09-09T12:17:51;19.10;99.90
16879;DHT22;8556;52.218;9.884;2022-09-09T12:20:21;19.20;99.90
16879;DHT22;8556;52.218;9.884;2022-09-09T12:23:03;19.30;99.90
16879;DHT22;8556;52.218;9.884;2022-09-09T12:25:58;19.20;99.90
16879;DHT22;8556;52.218;9.884;2022-09-09T12:28:39;19.30;99.90
16879;DHT22;8556;52.218;9.884;2022-09-09T12:31:11;19.00;99.90
16879;DHT22;8556;52.218;9.884;2022-09-09T12:33:45;19.30;99.90
16879;DHT22;8556;52.218;9.884;2022-09-09T12:36:15;19.30;99.90
16879;DHT22;8556;52.218;9.884;2022-09-09T12:38:43;19.10;99.90
16879;DHT22;8556;52.218;9.884;2022-09-09T12:41:19;19.10;99.90
16879;DHT22;8556;52.218;9.884;2022-09-09T12:43:47;19.10;99.90
16879;DHT22;8556;52.218;9.884;2022-09-09T12:46:24;19.10;99.90
16879;DHT22;8556;52.218;9.884;2022-09-09T12:48:54;19.10;99.90
16879;DHT22;8556;52.218;9.884;2022-09-09T12:51:25;19.00;99.90
16879;DHT22;8556;52.218;9.884;2022-09-09T12:53:53;19.10;99.90
16879;DHT22;8556;52.218;9.884;2022-09-09T12:56:21;18.90;99.90
16879;DHT22;8556;52.218;9.884;2022-09-09T12:58:50;18.90;99.90
16879;DHT22;8556;52.218;9.884;2022-09-09T13:01:22;18.90;99.90
16879;DHT22;8556;52.218;9.884;2022-09-09T13:03:49;18.80;99.90
16879;DHT22;8556;52.218;9.884;2022-09-09T13:06:22;18.90;99.90
16879;DHT22;8556;52.218;9.884;2022-09-09T13:08:49;18.90;99.90
16879;DHT22;8556;52.218;9.884;2022-09-09T13:11:21;19.10;99.90
16879;DHT22;8556;52.218;9.884;2022-09-09T13:13:53;19.10;99.90
16879;DHT22;8556;52.218;9.884;2022-09-09T13:16:23;19.20;99.90
16879;DHT22;8556;52.218;9.884;2022-09-09T13:18:52;19.20;99.90
16879;DHT22;8556;52.218;9.884;2022-09-09T13:21:32;19.30;99.90
16879;DHT22;8556;52.218;9.884;2022-09-09T13:24:00;19.30;99.90
16879;DHT22;8556;52.218;9.884;2022-09-09T13:26:29;19.30;99.90
16879;DHT22;8556;52.218;9.884;2022-09-09T13:29:08;19.40;99.90
16879;DHT22;8556;52.218;9.884;2022-09-09T13:31:42;19.40;99.90
16879;DHT22;8556;52.218;9.884;2022-09-09T13:34:12;19.60;99.90
16879;DHT22;8556;52.218;9.884;2022-09-09T13:36:46;19.70;99.90
16879;DHT22;8556;52.218;9.884;2022-09-09T13:39:16;19.80;99.90
16879;DHT22;8556;52.218;9.884;2022-09-09T13:41:45;19.90;99.90
16879;DHT22;8556;52.218;9.884;2022-09-09T13:44:20;20.00;99.90
16879;DHT22;8556;52.218;9.884;2022-09-09T13:47:02;20.30;99.90
16879;DHT22;8556;52.218;9.884;2022-09-09T13:49:30;20.70;99.90
16879;DHT22;8556;52.218;9.884;2022-09-09T13:52:12;21.10;99.90
16879;DHT22;8556;52.218;9.884;2022-09-09T13:54:40;21.70;99.90
16879;DHT22;8556;52.218;9.884;2022-09-09T13:57:15;21.70;99.90
16879;DHT22;8556;52.218;9.884;2022-09-09T13:59:43;22.00;99.90
16879;DHT22;8556;52.218;9.884;2022-09-09T14:02:10;21.60;99.90
16879;DHT22;8556;52.218;9.884;2022-09-09T14:04:37;21.30;99.90
16879;DHT22;8556;52.218;9.884;2022-09-09T14:07:09;21.30;99.90
16879;DHT22;8556;52.218;9.884;2022-09-09T14:09:37;21.30;99.90
16879;DHT22;8556;52.218;9.884;2022-09-09T14:12:04;21.40;99.90
16879;DHT22;8556;52.218;9.884;2022-09-09T14:14:32;21.00;99.90
16879;DHT22;8556;52.218;9.884;2022-09-09T14:16:58;20.90;99.90
16879;DHT22;8556;52.218;9.884;2022-09-09T14:19:25;20.80;99.90
16879;DHT22;8556;52.218;9.884;2022-09-09T14:21:52;20.90;99.90
16879;DHT22;8556;52.218;9.884;2022-09-09T14:24:21;21.20;99.90
16879;DHT22;8556;52.218;9.884;2022-09-09T14:26:48;21.30;99.90
16879;DHT22;8556;52.218;9.884;2022-09-09T14:29:14;21.50;99.90
16879;DHT22;8556;52.218;9.884;2022-09-09T14:31:41;21.30;99.90
16879;DHT22;8556;52.218;9.884;2022-09-09T14:34:08;21.20;99.90
16879;DHT22;8556;52.218;9.884;2022-09-09T14:36:36;21.30;99.90
16879;DHT22;8556;52.218;9.884;2022-09-09T14:39:03;21.20;99.90
16879;DHT22;8556;52.218;9.884;2022-09-09T14:41:31;21.10;99.90
16879;DHT22;8556;52.218;9.884;2022-09-09T14:43:59;21.10;99.90
16879;DHT22;8556;52.218;9.884;2022-09-09T14:46:26;20.80;99.90
16879;DHT22;8556;52.218;9.884;2022-09-09T14:48:53;20.80;99.90
16879;DHT22;8556;52.218;9.884;2022-09-09T14:51:21;21.10;99.90
16879;DHT22;8556;52.218;9.884;2022-09-09T14:53:51;21.10;99.90
16879;DHT22;8556;52.218;9.884;2022-09-09T14:56:20;21.20;99.90
16879;DHT22;8556;52.218;9.884;2022-09-09T14:58:50;21.30;99.90
16879;DHT22;8556;52.218;9.884;2022-09-09T15:01:19;21.40;99.90
16879;DHT22;8556;52.218;9.884;2022-09-09T15:03:50;22.00;99.90
16879;DHT22;8556;52.218;9.884;2022-09-09T15:06:17;21.80;99.90
16879;DHT22;8556;52.218;9.884;2022-09-09T15:08:45;21.80;99.90
16879;DHT22;8556;52.218;9.884;2022-09-09T15:11:13;22.00;99.90
16879;DHT22;8556;52.218;9.884;2022-09-09T15:13:42;21.90;99.90
16879;DHT22;8556;52.218;9.884;2022-09-09T15:16:11;22.20;99.90
16879;DHT22;8556;52.218;9.884;2022-09-09T15:18:38;22.40;99.90
16879;DHT22;8556;52.218;9.884;2022-09-09T15:21:08;22.40;99.90
16879;DHT22;8556;52.218;9.884;2022-09-09T15:23:36;22.50;99.90
16879;DHT22;8556;52.218;9.884;2022-09-09T15:26:03;22.40;99.90
16879;DHT22;8556;52.218;9.884;2022-09-09T15:28:31;22.40;99.90
16879;DHT22;8556;52.218;9.884;2022-09-09T15:31:05;22.50;99.90
16879;DHT22;8556;52.218;9.884;2022-09-09T15:33:34;22.40;99.90
16879;DHT22;8556;52.218;9.884;2022-09-09T15:36:12;22.70;99.90
16879;DHT22;8556;52.218;9.884;2022-09-09T15:38:39;22.60;99.90
16879;DHT22;8556;52.218;9.884;2022-09-09T15:41:06;22.80;99.90
16879;DHT22;8556;52.218;9.884;2022-09-09T15:43:32;22.60;99.90
16879;DHT22;8556;52.218;9.884;2022-09-09T15:46:09;22.50;99.90
16879;DHT22;8556;52.218;9.884;2022-09-09T15:48:51;22.50;99.90
16879;DHT22;8556;52.218;9.884;2022-09-09T15:51:18;22.20;99.90
16879;DHT22;8556;52.218;9.884;2022-09-09T15:53:45;22.10;99.90
16879;DHT22;8556;52.218;9.884;2022-09-09T15:56:13;22.20;99.90
16879;DHT22;8556;52.218;9.884;2022-09-09T15:58:40;22.00;99.90
16879;DHT22;8556;52.218;9.884;2022-09-09T16:01:10;21.70;99.90
16879;DHT22;8556;52.218;9.884;2022-09-09T16:03:40;21.60;99.90
16879;DHT22;8556;52.218;9.884;2022-09-09T16:06:09;21.70;99.90
16879;DHT22;8556;52.218;9.884;2022-09-09T16:08:38;21.70;99.90
16879;DHT22;8556;52.218;9.884;2022-09-09T16:11:06;21.80;99.90